sensor_id;sensor_type;location;lat;lon;timestamp;P1;durP1;ratioP1;P2;durP2;ratioP2
82372;SDS011;72000;42.828;23.382;2024-02-16T00:01:02;5.28;;;1.80;;
82372;SDS011;72000;42.828;23.382;2024-02-16T00:03:28;4.90;;;2.00;;
82372;SDS011;72000;42.828;23.382;2024-02-16T00:05:53;6.70;;;2.00;;
82372;SDS011;72000;42.828;23.382;2024-02-16T00:08:19;5.65;;;2.30;;
82372;SDS011;72000;42.828;23.382;2024-02-16T00:10:45;5.70;;;1.90;;
82372;SDS011;72000;42.828;23.382;2024-02-16T00:15:37;4.65;;;2.00;;
82372;SDS011;72000;42.828;23.382;2024-02-16T00:18:06;6.47;;;2.00;;
82372;SDS011;72000;42.828;23.382;2024-02-16T00:20:31;5.50;;;2.20;;
82372;SDS011;72000;42.828;23.382;2024-02-16T00:22:57;5.50;;;1.90;;
82372;SDS011;72000;42.828;23.382;2024-02-16T00:25:24;5.47;;;2.10;;
82372;SDS011;72000;42.828;23.382;2024-02-16T00:27:50;6.10;;;1.88;;
82372;SDS011;72000;42.828;23.382;2024-02-16T00:30:21;7.28;;;2.38;;
82372;SDS011;72000;42.828;23.382;2024-02-16T00:32:47;7.82;;;2.20;;
82372;SDS011;72000;42.828;23.382;2024-02-16T00:35:14;7.00;;;2.22;;
82372;SDS011;72000;42.828;23.382;2024-02-16T00:37:41;6.32;;;2.20;;
82372;SDS011;72000;42.828;23.382;2024-02-16T00:40:07;5.43;;;2.20;;
82372;SDS011;72000;42.828;23.382;2024-02-16T00:42:33;7.18;;;2.50;;
82372;SDS011;72000;42.828;23.382;2024-02-16T00:44:59;5.15;;;2.20;;
82372;SDS011;72000;42.828;23.382;2024-02-16T00:47:31;7.15;;;2.20;;
82372;SDS011;72000;42.828;23.382;2024-02-16T00:49:58;6.00;;;2.15;;
82372;SDS011;72000;42.828;23.382;2024-02-16T00:52:24;6.75;;;1.98;;
82372;SDS011;72000;42.828;23.382;2024-02-16T00:54:49;6.88;;;1.88;;
82372;SDS011;72000;42.828;23.382;2024-02-16T00:57:15;6.97;;;2.08;;
82372;SDS011;72000;42.828;23.382;2024-02-16T00:59:41;4.82;;;1.75;;
82372;SDS011;72000;42.828;23.382;2024-02-16T01:02:07;5.88;;;1.83;;
82372;SDS011;72000;42.828;23.382;2024-02-16T01:04:33;4.85;;;1.88;;
82372;SDS011;72000;42.828;23.382;2024-02-16T01:06:59;5.03;;;1.65;;
82372;SDS011;72000;42.828;23.382;2024-02-16T01:09:25;5.28;;;1.83;;
82372;SDS011;72000;42.828;23.382;2024-02-16T01:11:52;5.47;;;1.73;;
82372;SDS011;72000;42.828;23.382;2024-02-16T01:14:17;5.30;;;2.00;;
82372;SDS011;72000;42.828;23.382;2024-02-16T01:16:44;4.57;;;1.92;;
82372;SDS011;72000;42.828;23.382;2024-02-16T01:19:09;4.72;;;1.90;;
82372;SDS011;72000;42.828;23.382;2024-02-16T01:21:35;6.57;;;1.80;;
82372;SDS011;72000;42.828;23.382;2024-02-16T01:24:00;5.20;;;2.03;;
82372;SDS011;72000;42.828;23.382;2024-02-16T01:26:26;4.88;;;1.83;;
82372;SDS011;72000;42.828;23.382;2024-02-16T01:28:53;5.57;;;1.80;;
82372;SDS011;72000;42.828;23.382;2024-02-16T01:31:19;4.78;;;1.67;;
82372;SDS011;72000;42.828;23.382;2024-02-16T01:33:44;5.70;;;1.90;;
82372;SDS011;72000;42.828;23.382;2024-02-16T01:36:10;5.75;;;1.95;;
82372;SDS011;72000;42.828;23.382;2024-02-16T01:38:35;5.03;;;1.85;;
82372;SDS011;72000;42.828;23.382;2024-02-16T01:41:01;5.80;;;1.92;;
82372;SDS011;72000;42.828;23.382;2024-02-16T01:43:27;5.40;;;2.00;;
82372;SDS011;72000;42.828;23.382;2024-02-16T01:45:53;6.20;;;1.90;;
82372;SDS011;72000;42.828;23.382;2024-02-16T01:48:19;6.88;;;2.10;;
82372;SDS011;72000;42.828;23.382;2024-02-16T01:50:45;4.15;;;1.92;;
82372;SDS011;72000;42.828;23.382;2024-02-16T01:53:11;7.28;;;1.85;;
82372;SDS011;72000;42.828;23.382;2024-02-16T01:55:37;7.25;;;2.10;;
82372;SDS011;72000;42.828;23.382;2024-02-16T01:58:03;5.45;;;2.28;;
82372;SDS011;72000;42.828;23.382;2024-02-16T02:00:29;6.88;;;2.50;;
82372;SDS011;72000;42.828;23.382;2024-02-16T02:02:55;6.10;;;2.30;;
82372;SDS011;72000;42.828;23.382;2024-02-16T02:05:22;6.43;;;2.45;;
82372;SDS011;72000;42.828;23.382;2024-02-16T02:07:48;6.00;;;2.40;;
82372;SDS011;72000;42.828;23.382;2024-02-16T02:10:14;6.80;;;2.58;;
82372;SDS011;72000;42.828;23.382;2024-02-16T02:12:39;6.78;;;2.60;;
82372;SDS011;72000;42.828;23.382;2024-02-16T02:15:07;7.97;;;2.58;;
82372;SDS011;72000;42.828;23.382;2024-02-16T02:17:34;5.65;;;2.50;;
82372;SDS011;72000;42.828;23.382;2024-02-16T02:20:00;5.63;;;2.45;;
82372;SDS011;72000;42.828;23.382;2024-02-16T02:22:26;8.32;;;2.90;;
82372;SDS011;72000;42.828;23.382;2024-02-16T02:24:52;7.90;;;3.10;;
82372;SDS011;72000;42.828;23.382;2024-02-16T02:27:20;8.93;;;3.28;;
82372;SDS011;72000;42.828;23.382;2024-02-16T02:29:46;7.93;;;3.40;;
82372;SDS011;72000;42.828;23.382;2024-02-16T02:32:12;8.65;;;3.28;;
82372;SDS011;72000;42.828;23.382;2024-02-16T02:34:38;7.63;;;3.03;;
82372;SDS011;72000;42.828;23.382;2024-02-16T02:37:04;6.32;;;2.60;;
82372;SDS011;72000;42.828;23.382;2024-02-16T02:39:29;7.47;;;2.92;;
82372;SDS011;72000;42.828;23.382;2024-02-16T02:41:56;7.05;;;2.55;;
82372;SDS011;72000;42.828;23.382;2024-02-16T02:44:23;8.15;;;2.70;;
82372;SDS011;72000;42.828;23.382;2024-02-16T02:46:50;7.50;;;2.72;;
82372;SDS011;72000;42.828;23.382;2024-02-16T02:49:15;8.25;;;2.95;;
82372;SDS011;72000;42.828;23.382;2024-02-16T02:51:41;6.82;;;3.00;;
82372;SDS011;72000;42.828;23.382;2024-02-16T02:54:06;7.07;;;2.67;;
82372;SDS011;72000;42.828;23.382;2024-02-16T02:56:32;6.22;;;2.72;;
82372;SDS011;72000;42.828;23.382;2024-02-16T02:58:57;7.85;;;2.55;;
82372;SDS011;72000;42.828;23.382;2024-02-16T03:01:23;6.55;;;2.47;;
82372;SDS011;72000;42.828;23.382;2024-02-16T03:03:48;7.22;;;2.60;;
82372;SDS011;72000;42.828;23.382;2024-02-16T03:06:20;5.55;;;2.30;;
82372;SDS011;72000;42.828;23.382;2024-02-16T03:08:46;5.60;;;2.28;;
82372;SDS011;72000;42.828;23.382;2024-02-16T03:11:12;6.72;;;2.50;;
82372;SDS011;72000;42.828;23.382;2024-02-16T03:13:37;6.03;;;2.13;;
82372;SDS011;72000;42.828;23.382;2024-02-16T03:16:03;6.53;;;2.20;;
82372;SDS011;72000;42.828;23.382;2024-02-16T03:18:29;4.95;;;1.80;;
82372;SDS011;72000;42.828;23.382;2024-02-16T03:20:55;4.97;;;2.10;;
82372;SDS011;72000;42.828;23.382;2024-02-16T03:23:22;5.35;;;1.92;;
82372;SDS011;72000;42.828;23.382;2024-02-16T03:25:47;5.32;;;2.00;;
82372;SDS011;72000;42.828;23.382;2024-02-16T03:28:13;4.57;;;1.92;;
82372;SDS011;72000;42.828;23.382;2024-02-16T03:30:39;5.13;;;2.22;;
82372;SDS011;72000;42.828;23.382;2024-02-16T03:33:05;4.70;;;1.70;;
82372;SDS011;72000;42.828;23.382;2024-02-16T03:35:30;5.00;;;1.80;;
82372;SDS011;72000;42.828;23.382;2024-02-16T03:37:56;7.22;;;2.25;;
82372;SDS011;72000;42.828;23.382;2024-02-16T03:40:25;4.72;;;1.75;;
82372;SDS011;72000;42.828;23.382;2024-02-16T03:42:54;4.43;;;1.85;;
82372;SDS011;72000;42.828;23.382;2024-02-16T03:45:19;5.25;;;1.60;;
82372;SDS011;72000;42.828;23.382;2024-02-16T03:47:45;4.70;;;1.85;;
82372;SDS011;72000;42.828;23.382;2024-02-16T03:50:13;6.93;;;1.95;;
82372;SDS011;72000;42.828;23.382;2024-02-16T03:52:39;9.13;;;1.80;;
82372;SDS011;72000;42.828;23.382;2024-02-16T03:55:06;3.65;;;1.60;;
82372;SDS011;72000;42.828;23.382;2024-02-16T03:57:32;4.05;;;1.77;;
82372;SDS011;72000;42.828;23.382;2024-02-16T03:59:57;3.75;;;1.40;;
82372;SDS011;72000;42.828;23.382;2024-02-16T04:04:49;3.40;;;1.40;;
82372;SDS011;72000;42.828;23.382;2024-02-16T04:07:17;4.35;;;1.60;;
82372;SDS011;72000;42.828;23.382;2024-02-16T04:09:42;4.10;;;1.38;;
82372;SDS011;72000;42.828;23.382;2024-02-16T04:12:08;4.70;;;1.45;;
82372;SDS011;72000;42.828;23.382;2024-02-16T04:14:34;4.57;;;1.55;;
82372;SDS011;72000;42.828;23.382;2024-02-16T04:17:00;5.82;;;2.00;;
82372;SDS011;72000;42.828;23.382;2024-02-16T04:19:25;7.70;;;3.35;;
82372;SDS011;72000;42.828;23.382;2024-02-16T04:21:51;6.53;;;2.28;;
82372;SDS011;72000;42.828;23.382;2024-02-16T04:24:17;5.60;;;2.33;;
82372;SDS011;72000;42.828;23.382;2024-02-16T04:26:43;11.35;;;3.40;;
82372;SDS011;72000;42.828;23.382;2024-02-16T04:29:09;22.52;;;6.55;;
82372;SDS011;72000;42.828;23.382;2024-02-16T04:31:34;8.43;;;2.80;;
82372;SDS011;72000;42.828;23.382;2024-02-16T04:34:00;7.97;;;3.28;;
82372;SDS011;72000;42.828;23.382;2024-02-16T04:36:26;11.52;;;4.13;;
82372;SDS011;72000;42.828;23.382;2024-02-16T04:38:52;9.60;;;3.85;;
82372;SDS011;72000;42.828;23.382;2024-02-16T04:41:19;9.38;;;3.83;;
82372;SDS011;72000;42.828;23.382;2024-02-16T04:43:45;8.95;;;3.67;;
82372;SDS011;72000;42.828;23.382;2024-02-16T04:46:14;10.85;;;4.30;;
82372;SDS011;72000;42.828;23.382;2024-02-16T04:48:42;11.57;;;4.82;;
82372;SDS011;72000;42.828;23.382;2024-02-16T04:51:08;9.43;;;4.18;;
82372;SDS011;72000;42.828;23.382;2024-02-16T04:53:34;11.52;;;4.18;;
82372;SDS011;72000;42.828;23.382;2024-02-16T04:55:59;11.50;;;4.05;;
82372;SDS011;72000;42.828;23.382;2024-02-16T04:58:27;10.50;;;4.38;;
82372;SDS011;72000;42.828;23.382;2024-02-16T05:00:52;11.20;;;4.15;;
82372;SDS011;72000;42.828;23.382;2024-02-16T05:03:18;12.85;;;4.72;;
82372;SDS011;72000;42.828;23.382;2024-02-16T05:05:43;12.60;;;4.10;;
82372;SDS011;72000;42.828;23.382;2024-02-16T05:08:09;13.50;;;4.85;;
82372;SDS011;72000;42.828;23.382;2024-02-16T05:10:34;12.00;;;5.07;;
82372;SDS011;72000;42.828;23.382;2024-02-16T05:13:00;12.38;;;4.75;;
82372;SDS011;72000;42.828;23.382;2024-02-16T05:15:25;11.77;;;5.00;;
82372;SDS011;72000;42.828;23.382;2024-02-16T05:17:51;12.68;;;4.95;;
82372;SDS011;72000;42.828;23.382;2024-02-16T05:20:16;17.05;;;6.63;;
82372;SDS011;72000;42.828;23.382;2024-02-16T05:22:45;16.80;;;6.72;;
82372;SDS011;72000;42.828;23.382;2024-02-16T05:25:11;13.32;;;6.18;;
82372;SDS011;72000;42.828;23.382;2024-02-16T05:27:43;15.95;;;6.53;;
82372;SDS011;72000;42.828;23.382;2024-02-16T05:30:15;16.88;;;6.00;;
82372;SDS011;72000;42.828;23.382;2024-02-16T05:32:43;14.95;;;5.78;;
82372;SDS011;72000;42.828;23.382;2024-02-16T05:35:13;17.55;;;6.15;;
82372;SDS011;72000;42.828;23.382;2024-02-16T05:37:42;14.40;;;6.13;;
82372;SDS011;72000;42.828;23.382;2024-02-16T05:40:16;14.50;;;5.95;;
82372;SDS011;72000;42.828;23.382;2024-02-16T05:42:56;14.88;;;5.97;;
82372;SDS011;72000;42.828;23.382;2024-02-16T05:45:25;17.10;;;6.57;;
82372;SDS011;72000;42.828;23.382;2024-02-16T05:47:51;15.73;;;6.63;;
82372;SDS011;72000;42.828;23.382;2024-02-16T05:50:17;18.65;;;7.43;;
82372;SDS011;72000;42.828;23.382;2024-02-16T05:52:45;18.77;;;7.75;;
82372;SDS011;72000;42.828;23.382;2024-02-16T05:55:11;21.23;;;8.00;;
82372;SDS011;72000;42.828;23.382;2024-02-16T05:57:38;18.92;;;7.95;;
82372;SDS011;72000;42.828;23.382;2024-02-16T06:00:04;17.83;;;7.32;;
82372;SDS011;72000;42.828;23.382;2024-02-16T06:02:32;16.65;;;6.78;;
82372;SDS011;72000;42.828;23.382;2024-02-16T06:05:01;18.30;;;6.55;;
82372;SDS011;72000;42.828;23.382;2024-02-16T06:07:28;16.63;;;6.50;;
82372;SDS011;72000;42.828;23.382;2024-02-16T06:09:57;14.13;;;6.43;;
82372;SDS011;72000;42.828;23.382;2024-02-16T06:12:23;15.18;;;6.05;;
82372;SDS011;72000;42.828;23.382;2024-02-16T06:14:48;14.60;;;6.07;;
82372;SDS011;72000;42.828;23.382;2024-02-16T06:17:14;14.48;;;6.05;;
82372;SDS011;72000;42.828;23.382;2024-02-16T06:19:40;16.98;;;6.03;;
82372;SDS011;72000;42.828;23.382;2024-02-16T06:22:06;14.15;;;5.85;;
82372;SDS011;72000;42.828;23.382;2024-02-16T06:24:33;13.43;;;5.22;;
82372;SDS011;72000;42.828;23.382;2024-02-16T06:26:59;10.45;;;4.28;;
82372;SDS011;72000;42.828;23.382;2024-02-16T06:29:24;11.45;;;4.30;;
82372;SDS011;72000;42.828;23.382;2024-02-16T06:31:50;9.00;;;3.63;;
82372;SDS011;72000;42.828;23.382;2024-02-16T06:34:16;12.40;;;4.63;;
82372;SDS011;72000;42.828;23.382;2024-02-16T06:39:08;12.68;;;5.13;;
82372;SDS011;72000;42.828;23.382;2024-02-16T06:41:36;12.93;;;5.22;;
82372;SDS011;72000;42.828;23.382;2024-02-16T06:44:02;13.40;;;5.18;;
82372;SDS011;72000;42.828;23.382;2024-02-16T06:46:29;11.70;;;5.05;;
82372;SDS011;72000;42.828;23.382;2024-02-16T06:48:55;13.95;;;5.57;;
82372;SDS011;72000;42.828;23.382;2024-02-16T06:51:24;12.48;;;5.38;;
82372;SDS011;72000;42.828;23.382;2024-02-16T06:53:49;10.25;;;4.70;;
82372;SDS011;72000;42.828;23.382;2024-02-16T06:58:43;13.48;;;5.38;;
82372;SDS011;72000;42.828;23.382;2024-02-16T07:01:09;12.20;;;5.53;;
82372;SDS011;72000;42.828;23.382;2024-02-16T07:03:34;13.90;;;5.95;;
82372;SDS011;72000;42.828;23.382;2024-02-16T07:06:03;20.52;;;7.72;;
82372;SDS011;72000;42.828;23.382;2024-02-16T07:08:29;18.75;;;7.97;;
82372;SDS011;72000;42.828;23.382;2024-02-16T07:10:55;20.15;;;8.52;;
82372;SDS011;72000;42.828;23.382;2024-02-16T07:13:22;22.27;;;9.07;;
82372;SDS011;72000;42.828;23.382;2024-02-16T07:15:47;21.67;;;8.52;;
82372;SDS011;72000;42.828;23.382;2024-02-16T07:18:13;19.08;;;7.78;;
82372;SDS011;72000;42.828;23.382;2024-02-16T07:20:38;19.95;;;7.07;;
82372;SDS011;72000;42.828;23.382;2024-02-16T07:23:04;17.83;;;6.68;;
82372;SDS011;72000;42.828;23.382;2024-02-16T07:25:29;17.90;;;6.90;;
82372;SDS011;72000;42.828;23.382;2024-02-16T07:27:55;20.05;;;7.47;;
82372;SDS011;72000;42.828;23.382;2024-02-16T07:30:20;20.83;;;8.05;;
82372;SDS011;72000;42.828;23.382;2024-02-16T07:32:49;21.45;;;9.02;;
82372;SDS011;72000;42.828;23.382;2024-02-16T07:35:18;33.30;;;11.20;;
82372;SDS011;72000;42.828;23.382;2024-02-16T07:37:44;28.83;;;10.52;;
82372;SDS011;72000;42.828;23.382;2024-02-16T07:40:09;28.30;;;9.93;;
82372;SDS011;72000;42.828;23.382;2024-02-16T07:42:38;24.50;;;10.02;;
82372;SDS011;72000;42.828;23.382;2024-02-16T07:45:05;22.75;;;8.65;;
82372;SDS011;72000;42.828;23.382;2024-02-16T07:47:31;21.50;;;9.07;;
82372;SDS011;72000;42.828;23.382;2024-02-16T07:49:57;20.13;;;8.02;;
82372;SDS011;72000;42.828;23.382;2024-02-16T07:52:23;26.38;;;9.23;;
82372;SDS011;72000;42.828;23.382;2024-02-16T07:54:48;20.60;;;8.45;;
82372;SDS011;72000;42.828;23.382;2024-02-16T07:57:17;19.65;;;8.50;;
82372;SDS011;72000;42.828;23.382;2024-02-16T07:59:42;23.30;;;8.60;;
82372;SDS011;72000;42.828;23.382;2024-02-16T08:02:08;20.13;;;8.52;;
82372;SDS011;72000;42.828;23.382;2024-02-16T08:04:34;21.55;;;8.20;;
82372;SDS011;72000;42.828;23.382;2024-02-16T08:07:00;20.27;;;8.50;;
82372;SDS011;72000;42.828;23.382;2024-02-16T08:09:26;19.33;;;8.32;;
82372;SDS011;72000;42.828;23.382;2024-02-16T08:11:52;22.75;;;8.73;;
82372;SDS011;72000;42.828;23.382;2024-02-16T08:14:18;21.13;;;8.65;;
82372;SDS011;72000;42.828;23.382;2024-02-16T08:16:43;23.08;;;9.20;;
82372;SDS011;72000;42.828;23.382;2024-02-16T08:19:08;23.40;;;9.10;;
82372;SDS011;72000;42.828;23.382;2024-02-16T08:21:34;18.83;;;7.97;;
82372;SDS011;72000;42.828;23.382;2024-02-16T08:23:59;23.30;;;8.32;;
82372;SDS011;72000;42.828;23.382;2024-02-16T08:26:25;22.08;;;8.77;;
82372;SDS011;72000;42.828;23.382;2024-02-16T08:31:17;21.90;;;8.68;;
82372;SDS011;72000;42.828;23.382;2024-02-16T08:33:44;22.52;;;8.77;;
82372;SDS011;72000;42.828;23.382;2024-02-16T08:36:10;21.65;;;9.43;;
82372;SDS011;72000;42.828;23.382;2024-02-16T08:38:39;22.05;;;9.02;;
82372;SDS011;72000;42.828;23.382;2024-02-16T08:41:04;22.52;;;9.70;;
82372;SDS011;72000;42.828;23.382;2024-02-16T08:43:30;22.02;;;9.95;;
82372;SDS011;72000;42.828;23.382;2024-02-16T08:45:55;24.98;;;10.27;;
82372;SDS011;72000;42.828;23.382;2024-02-16T08:48:21;23.67;;;9.93;;
82372;SDS011;72000;42.828;23.382;2024-02-16T08:50:47;21.42;;;9.25;;
82372;SDS011;72000;42.828;23.382;2024-02-16T08:53:13;22.83;;;9.82;;
82372;SDS011;72000;42.828;23.382;2024-02-16T08:55:39;22.45;;;10.02;;
82372;SDS011;72000;42.828;23.382;2024-02-16T08:58:07;26.67;;;10.40;;
82372;SDS011;72000;42.828;23.382;2024-02-16T09:00:33;23.55;;;9.75;;
82372;SDS011;72000;42.828;23.382;2024-02-16T09:02:58;27.92;;;10.38;;
82372;SDS011;72000;42.828;23.382;2024-02-16T09:05:24;22.42;;;9.88;;
82372;SDS011;72000;42.828;23.382;2024-02-16T09:07:49;21.17;;;9.38;;
82372;SDS011;72000;42.828;23.382;2024-02-16T09:10:15;19.98;;;9.70;;
82372;SDS011;72000;42.828;23.382;2024-02-16T09:12:40;20.13;;;8.95;;
82372;SDS011;72000;42.828;23.382;2024-02-16T09:15:06;21.73;;;8.70;;
82372;SDS011;72000;42.828;23.382;2024-02-16T09:17:32;21.02;;;9.30;;
82372;SDS011;72000;42.828;23.382;2024-02-16T09:19:57;20.20;;;8.45;;
82372;SDS011;72000;42.828;23.382;2024-02-16T09:22:23;18.65;;;8.40;;
82372;SDS011;72000;42.828;23.382;2024-02-16T09:24:48;16.98;;;8.32;;
82372;SDS011;72000;42.828;23.382;2024-02-16T09:27:14;19.63;;;8.30;;
82372;SDS011;72000;42.828;23.382;2024-02-16T09:29:39;20.33;;;8.50;;
82372;SDS011;72000;42.828;23.382;2024-02-16T09:32:05;18.33;;;8.30;;
82372;SDS011;72000;42.828;23.382;2024-02-16T09:34:31;20.83;;;8.55;;
82372;SDS011;72000;42.828;23.382;2024-02-16T09:36:57;18.85;;;7.93;;
82372;SDS011;72000;42.828;23.382;2024-02-16T09:39:22;17.40;;;8.15;;
82372;SDS011;72000;42.828;23.382;2024-02-16T09:41:50;18.48;;;7.78;;
82372;SDS011;72000;42.828;23.382;2024-02-16T09:44:17;17.50;;;7.90;;
82372;SDS011;72000;42.828;23.382;2024-02-16T09:46:43;8.05;;;3.30;;
82372;SDS011;72000;42.828;23.382;2024-02-16T09:49:08;8.77;;;3.85;;
82372;SDS011;72000;42.828;23.382;2024-02-16T09:51:38;15.23;;;6.63;;
82372;SDS011;72000;42.828;23.382;2024-02-16T09:54:04;17.08;;;7.47;;
82372;SDS011;72000;42.828;23.382;2024-02-16T09:56:30;17.48;;;7.80;;
82372;SDS011;72000;42.828;23.382;2024-02-16T09:58:55;15.63;;;7.18;;
82372;SDS011;72000;42.828;23.382;2024-02-16T10:01:21;14.10;;;6.18;;
82372;SDS011;72000;42.828;23.382;2024-02-16T10:03:48;8.63;;;4.10;;
82372;SDS011;72000;42.828;23.382;2024-02-16T10:06:15;5.15;;;2.40;;
82372;SDS011;72000;42.828;23.382;2024-02-16T10:11:14;5.45;;;1.92;;
82372;SDS011;72000;42.828;23.382;2024-02-16T10:13:40;3.88;;;1.70;;
82372;SDS011;72000;42.828;23.382;2024-02-16T10:16:06;3.67;;;1.77;;
82372;SDS011;72000;42.828;23.382;2024-02-16T10:18:35;4.32;;;1.83;;
82372;SDS011;72000;42.828;23.382;2024-02-16T10:21:01;3.45;;;1.63;;
82372;SDS011;72000;42.828;23.382;2024-02-16T10:23:26;4.70;;;1.90;;
82372;SDS011;72000;42.828;23.382;2024-02-16T10:25:53;4.90;;;2.00;;
82372;SDS011;72000;42.828;23.382;2024-02-16T10:28:19;5.15;;;1.90;;
82372;SDS011;72000;42.828;23.382;2024-02-16T10:30:47;4.20;;;2.03;;
82372;SDS011;72000;42.828;23.382;2024-02-16T10:33:13;3.92;;;1.80;;
82372;SDS011;72000;42.828;23.382;2024-02-16T10:35:39;3.45;;;1.65;;
82372;SDS011;72000;42.828;23.382;2024-02-16T10:38:06;5.35;;;1.77;;
82372;SDS011;72000;42.828;23.382;2024-02-16T10:40:44;3.97;;;1.75;;
82372;SDS011;72000;42.828;23.382;2024-02-16T10:43:12;4.28;;;1.60;;
82372;SDS011;72000;42.828;23.382;2024-02-16T10:45:38;4.00;;;1.80;;
82372;SDS011;72000;42.828;23.382;2024-02-16T10:48:05;3.70;;;1.77;;
82372;SDS011;72000;42.828;23.382;2024-02-16T10:50:32;3.95;;;1.70;;
82372;SDS011;72000;42.828;23.382;2024-02-16T10:53:02;3.85;;;1.70;;
82372;SDS011;72000;42.828;23.382;2024-02-16T10:55:31;4.20;;;1.75;;
82372;SDS011;72000;42.828;23.382;2024-02-16T10:57:57;5.68;;;2.22;;
82372;SDS011;72000;42.828;23.382;2024-02-16T11:00:24;4.53;;;1.85;;
82372;SDS011;72000;42.828;23.382;2024-02-16T11:05:20;5.35;;;2.10;;
82372;SDS011;72000;42.828;23.382;2024-02-16T11:08:00;4.18;;;1.80;;
82372;SDS011;72000;42.828;23.382;2024-02-16T11:10:26;5.00;;;1.90;;
82372;SDS011;72000;42.828;23.382;2024-02-16T11:12:52;3.28;;;1.50;;
82372;SDS011;72000;42.828;23.382;2024-02-16T11:15:28;4.72;;;1.98;;
82372;SDS011;72000;42.828;23.382;2024-02-16T11:17:57;4.85;;;1.90;;
82372;SDS011;72000;42.828;23.382;2024-02-16T11:20:24;4.10;;;1.70;;
82372;SDS011;72000;42.828;23.382;2024-02-16T11:22:51;3.88;;;1.85;;
82372;SDS011;72000;42.828;23.382;2024-02-16T11:25:17;5.25;;;2.10;;
82372;SDS011;72000;42.828;23.382;2024-02-16T11:27:43;3.80;;;1.70;;
82372;SDS011;72000;42.828;23.382;2024-02-16T11:30:10;4.55;;;2.08;;
82372;SDS011;72000;42.828;23.382;2024-02-16T11:32:36;4.22;;;1.70;;
82372;SDS011;72000;42.828;23.382;2024-02-16T11:35:07;5.30;;;2.20;;
82372;SDS011;72000;42.828;23.382;2024-02-16T11:37:33;3.85;;;1.88;;
82372;SDS011;72000;42.828;23.382;2024-02-16T11:39:59;4.65;;;1.80;;
82372;SDS011;72000;42.828;23.382;2024-02-16T11:42:24;4.78;;;2.05;;
82372;SDS011;72000;42.828;23.382;2024-02-16T11:44:50;4.18;;;1.95;;
82372;SDS011;72000;42.828;23.382;2024-02-16T11:47:20;5.00;;;1.70;;
82372;SDS011;72000;42.828;23.382;2024-02-16T11:50:08;4.55;;;1.90;;
82372;SDS011;72000;42.828;23.382;2024-02-16T11:52:38;5.07;;;2.20;;
82372;SDS011;72000;42.828;23.382;2024-02-16T11:55:04;4.07;;;1.70;;
82372;SDS011;72000;42.828;23.382;2024-02-16T11:57:33;7.00;;;2.03;;
82372;SDS011;72000;42.828;23.382;2024-02-16T12:00:00;4.15;;;1.80;;
82372;SDS011;72000;42.828;23.382;2024-02-16T12:02:29;4.40;;;2.38;;
82372;SDS011;72000;42.828;23.382;2024-02-16T12:05:01;4.78;;;2.10;;
82372;SDS011;72000;42.828;23.382;2024-02-16T12:07:26;4.47;;;1.90;;
82372;SDS011;72000;42.828;23.382;2024-02-16T12:09:59;4.32;;;1.70;;
82372;SDS011;72000;42.828;23.382;2024-02-16T12:12:26;4.28;;;1.90;;
82372;SDS011;72000;42.828;23.382;2024-02-16T12:14:53;4.75;;;1.90;;
82372;SDS011;72000;42.828;23.382;2024-02-16T12:17:19;4.15;;;1.80;;
82372;SDS011;72000;42.828;23.382;2024-02-16T12:19:45;4.20;;;1.95;;
82372;SDS011;72000;42.828;23.382;2024-02-16T12:22:11;4.57;;;2.00;;
82372;SDS011;72000;42.828;23.382;2024-02-16T12:24:45;4.35;;;2.00;;
82372;SDS011;72000;42.828;23.382;2024-02-16T12:27:11;5.55;;;2.10;;
82372;SDS011;72000;42.828;23.382;2024-02-16T12:29:38;4.97;;;2.20;;
82372;SDS011;72000;42.828;23.382;2024-02-16T12:32:04;4.50;;;2.22;;
82372;SDS011;72000;42.828;23.382;2024-02-16T12:34:30;4.82;;;2.22;;
82372;SDS011;72000;42.828;23.382;2024-02-16T12:36:56;5.05;;;1.90;;
82372;SDS011;72000;42.828;23.382;2024-02-16T12:39:22;4.13;;;1.90;;
82372;SDS011;72000;42.828;23.382;2024-02-16T12:41:47;4.00;;;1.83;;
82372;SDS011;72000;42.828;23.382;2024-02-16T12:44:14;4.57;;;2.00;;
82372;SDS011;72000;42.828;23.382;2024-02-16T12:46:39;5.03;;;1.95;;
82372;SDS011;72000;42.828;23.382;2024-02-16T12:49:06;5.45;;;2.00;;
82372;SDS011;72000;42.828;23.382;2024-02-16T12:51:32;3.35;;;1.63;;
82372;SDS011;72000;42.828;23.382;2024-02-16T12:53:57;5.07;;;1.95;;
82372;SDS011;72000;42.828;23.382;2024-02-16T12:56:25;4.00;;;2.00;;
82372;SDS011;72000;42.828;23.382;2024-02-16T12:58:51;4.80;;;2.20;;
82372;SDS011;72000;42.828;23.382;2024-02-16T13:01:16;4.07;;;1.98;;
82372;SDS011;72000;42.828;23.382;2024-02-16T13:03:45;5.45;;;2.20;;
82372;SDS011;72000;42.828;23.382;2024-02-16T13:06:10;5.45;;;2.17;;
82372;SDS011;72000;42.828;23.382;2024-02-16T13:08:37;5.03;;;2.20;;
82372;SDS011;72000;42.828;23.382;2024-02-16T13:11:02;6.10;;;2.10;;
82372;SDS011;72000;42.828;23.382;2024-02-16T13:13:28;4.60;;;2.00;;
82372;SDS011;72000;42.828;23.382;2024-02-16T13:15:54;4.95;;;1.70;;
82372;SDS011;72000;42.828;23.382;2024-02-16T13:18:21;4.15;;;2.00;;
82372;SDS011;72000;42.828;23.382;2024-02-16T13:20:47;4.00;;;1.70;;
82372;SDS011;72000;42.828;23.382;2024-02-16T13:23:12;4.13;;;1.98;;
82372;SDS011;72000;42.828;23.382;2024-02-16T13:25:38;3.78;;;1.85;;
82372;SDS011;72000;42.828;23.382;2024-02-16T13:28:04;5.95;;;1.95;;
82372;SDS011;72000;42.828;23.382;2024-02-16T13:30:30;5.88;;;2.33;;
82372;SDS011;72000;42.828;23.382;2024-02-16T13:32:55;5.97;;;2.20;;
82372;SDS011;72000;42.828;23.382;2024-02-16T13:35:22;4.45;;;1.95;;
82372;SDS011;72000;42.828;23.382;2024-02-16T13:37:48;4.35;;;1.85;;
82372;SDS011;72000;42.828;23.382;2024-02-16T13:40:14;4.65;;;2.10;;
82372;SDS011;72000;42.828;23.382;2024-02-16T13:42:39;7.72;;;2.35;;
82372;SDS011;72000;42.828;23.382;2024-02-16T13:45:06;3.60;;;1.67;;
82372;SDS011;72000;42.828;23.382;2024-02-16T13:47:32;10.15;;;3.05;;
82372;SDS011;72000;42.828;23.382;2024-02-16T13:49:59;3.83;;;1.70;;
82372;SDS011;72000;42.828;23.382;2024-02-16T13:52:25;8.45;;;3.20;;
82372;SDS011;72000;42.828;23.382;2024-02-16T13:57:16;7.88;;;2.47;;
82372;SDS011;72000;42.828;23.382;2024-02-16T13:59:42;5.45;;;2.20;;
82372;SDS011;72000;42.828;23.382;2024-02-16T14:02:08;4.70;;;1.98;;
82372;SDS011;72000;42.828;23.382;2024-02-16T14:04:35;8.07;;;2.40;;
82372;SDS011;72000;42.828;23.382;2024-02-16T14:07:01;3.85;;;1.70;;
82372;SDS011;72000;42.828;23.382;2024-02-16T14:09:27;15.15;;;4.03;;
82372;SDS011;72000;42.828;23.382;2024-02-16T14:11:52;13.38;;;3.85;;
82372;SDS011;72000;42.828;23.382;2024-02-16T14:14:26;5.57;;;2.28;;
82372;SDS011;72000;42.828;23.382;2024-02-16T14:16:52;4.07;;;1.70;;
82372;SDS011;72000;42.828;23.382;2024-02-16T14:19:18;3.95;;;1.75;;
82372;SDS011;72000;42.828;23.382;2024-02-16T14:21:43;4.78;;;1.80;;
82372;SDS011;72000;42.828;23.382;2024-02-16T14:24:09;5.43;;;2.28;;
82372;SDS011;72000;42.828;23.382;2024-02-16T14:26:36;4.47;;;2.10;;
82372;SDS011;72000;42.828;23.382;2024-02-16T14:29:02;4.10;;;2.00;;
82372;SDS011;72000;42.828;23.382;2024-02-16T14:31:29;4.60;;;1.92;;
82372;SDS011;72000;42.828;23.382;2024-02-16T14:33:54;4.75;;;2.00;;
82372;SDS011;72000;42.828;23.382;2024-02-16T14:36:21;3.83;;;1.75;;
82372;SDS011;72000;42.828;23.382;2024-02-16T14:38:47;3.83;;;1.73;;
82372;SDS011;72000;42.828;23.382;2024-02-16T14:41:13;3.72;;;1.75;;
82372;SDS011;72000;42.828;23.382;2024-02-16T14:43:38;4.57;;;1.75;;